Aeroporto :
LOGIN :

Iscrizione | Disclaimer

   EN    FR    IT 

 










Sommario :    VFR   VFR Marginale   IFR   IFR Intensivo   IFR Molto Intensivo
Visibilità : 
Base nubi : 
>= 8 km
>= 3000ft
5 / 8 km
1000 / 3000 ft
1500m / 5 km
500 / 1000 ft
800 / 1500m
200 / 500 ft
< 800m
< 200 ft
Simboli :   Temporali  Nebbia  Neve Forte  Precipitazioni Forti  Vento > 20 kt
SIGMETs :   Varie  Temporali  Ghiacco  Turbolenza  Onda orograficha  Ceneri Vulcaniche






- Altitudine del aeroporto : 82 ft
- Codice IATA : QIE


LFMI - Istres

ULTIMO METAR :
  • 041100Z AUTO 28009KT 240V330 CAVOK 12/04 Q0991 TEMPO 4000 SHRA BKN020TCU BECMG 16015KT

METARs OBSOLETI :
  • 041030Z AUTO 29010KT 270V330 9999 FEW038 SCT064 12/05 Q0991 TEMPO 4000 SHRA BKN020TCU BECMG 16015KT
  • 041000Z AUTO 27011KT 9999 FEW039 SCT064 12/06 Q0991 TEMPO 4000 SHRA BKN020TCU BECMG 16015KT
  • 040930Z AUTO 26014KT CAVOK 11/06 Q0990 TEMPO 4000 SHRA BKN020TCU BECMG 16015KT
  • 040900Z AUTO 26012KT CAVOK 12/07 Q0989 TEMPO VRB15G25KT 3000 TSRA FEW016CB BKN020TCU
  • 040830Z AUTO 20010KT 9999 FEW033 12/07 Q0989 TEMPO VRB15G25KT 3000 TSRA FEW016CB BKN020TCU
  • 040800Z AUTO 19011KT 9999 FEW048 BKN240 12/07 Q0989 BECMG 28010KT

TAF TAF LFMI
Valido dal 04 a 09 ore il 05 a 09 ore UTC


040800Z 0409/0509 16015KT 9999 BKN030 TX13/0412Z TN01/0506Z
TEMPO 0409/0412 4000 SHRA BKN020TCU
PROB40
TEMPO 0409/0411 VRB15G25KT 3000 TSRA FEW016CB BKN020TCU
TEMPO 0416/0424 4000 RA SCT014 OVC030
BECMG 0416/0418 VRB05KT
BECMG 0418/0420 CAVOK



MetMap, La meteo Aeronautica in un colpo d'occhio ! - Copyright ORBIFLY Dicembre 2007 - Disclaimer

ORBIFLY MET'MAP TEAM :

Programmazione e sviluppo : Alexandra Zaïnal
Concezione : Baudouin d'Aumeries
Aiuto per la programmazione : Marc-Olivier Méhu
Supporto tecnico e logistico : Manuel Goepfert
Aiuto per la traduzione : Arnaldo La Scala

Contatto : metmap@orbifly.com




FONTI E CREDITI :

   NOAA